Time;durP1;ratioP1;P1;durP2;ratioP2;P2;SDS_P1;SDS_P2;PMS_P1;PMS_P2;Temp;Humidity;BMP_temperature;BMP_pressure;BME280_temperature;BME280_humidity;BME280_pressure;Samples;Min_cycle;Max_cycle;Signal;HPM_P1;HPM_P2
2023/04/10 00:00:48;;;;;;;10.23;7.40;;;;;;;;;;5008121;28;20417;-95
2023/04/10 00:03:16;;;;;;;12.13;7.17;;;;;;;;;;5009680;28;20438;-96
2023/04/10 00:05:42;;;;;;;12.60;6.80;;;;;;;;;;5009512;28;20994;-95
2023/04/10 00:08:08;;;;;;;9.50;7.10;;;;;;;;;;5006594;28;20923;-95
2023/04/10 00:10:55;;;;;;;11.57;6.73;;;;;;;;;;5018689;28;20447;-95
2023/04/10 00:13:22;;;;;;;10.23;7.10;;;;;;;;;;5006637;28;20464;-95
2023/04/10 00:15:49;;;;;;;8.20;7.03;;;;;;;;;;5007282;28;20412;-94
2023/04/10 00:18:15;;;;;;;12.43;7.97;;;;;;;;;;5006743;28;20412;-94
2023/04/10 00:20:42;;;;;;;8.53;7.57;;;;;;;;;;5006369;28;20907;-95
2023/04/10 00:23:08;;;;;;;7.50;6.30;;;;;;;;;;5006541;28;20502;-94
2023/04/10 00:25:34;;;;;;;8.17;6.50;;;;;;;;;;5007514;28;20472;-93
2023/04/10 00:28:00;;;;;;;11.13;8.20;;;;;;;;;;5046269;28;20466;-95
2023/04/10 00:30:26;;;;;;;12.73;7.90;;;;;;;;;;5049393;28;20430;-94
2023/04/10 00:32:56;;;;;;;9.30;7.50;;;;;;;;;;5048772;28;20625;-94
2023/04/10 00:35:22;;;;;;;10.37;7.63;;;;;;;;;;5050066;28;20411;-95
2023/04/10 00:37:49;;;;;;;10.43;7.93;;;;;;;;;;5049838;28;20499;-94
2023/04/10 00:40:15;;;;;;;10.33;6.70;;;;;;;;;;5048442;28;20406;-94
2023/04/10 00:42:41;;;;;;;11.23;7.50;;;;;;;;;;5052043;28;20410;-95
2023/04/10 00:45:08;;;;;;;13.23;8.10;;;;;;;;;;5045995;28;20490;-95
2023/04/10 00:47:35;;;;;;;10.40;7.40;;;;;;;;;;5048026;28;20418;-95
2023/04/10 00:50:01;;;;;;;10.50;6.87;;;;;;;;;;5047737;28;20823;-95
2023/04/10 00:52:27;;;;;;;10.40;6.73;;;;;;;;;;5046690;28;20783;-94
2023/04/10 00:54:53;;;;;;;14.10;8.60;;;;;;;;;;5046047;28;20427;-95
2023/04/10 00:57:19;;;;;;;10.70;8.30;;;;;;;;;;5045190;28;20453;-95
2023/04/10 00:59:47;;;;;;;9.93;7.00;;;;;;;;;;5046560;28;20418;-94
2023/04/10 01:02:13;;;;;;;13.03;8.30;;;;;;;;;;5045427;28;20433;-94
2023/04/10 01:04:39;;;;;;;12.17;8.17;;;;;;;;;;5046945;28;20415;-94
2023/04/10 01:07:16;;;;;;;10.10;7.07;;;;;;;;;;5045719;28;20784;-95
2023/04/10 01:09:53;;;;;;;11.07;8.20;;;;;;;;;;5047377;28;20890;-95
2023/04/10 01:12:38;;;;;;;12.60;7.63;;;;;;;;;;5042515;28;20419;-95
2023/04/10 01:15:07;;;;;;;11.87;8.63;;;;;;;;;;5055456;28;20409;-94
2023/04/10 01:17:39;;;;;;;9.83;7.27;;;;;;;;;;5026071;28;20497;-96
2023/04/10 01:20:08;;;;;;;11.20;7.80;;;;;;;;;;5027092;28;20451;-95
2023/04/10 01:22:53;;;;;;;12.03;7.53;;;;;;;;;;5025413;28;20439;-94
2023/04/10 01:25:27;;;;;;;13.47;9.13;;;;;;;;;;5040820;28;20513;-95
2023/04/10 01:27:56;;;;;;;9.20;7.50;;;;;;;;;;5029644;28;20450;-95
2023/04/10 01:30:22;;;;;;;9.00;7.20;;;;;;;;;;5046304;28;20891;-94
2023/04/10 01:32:49;;;;;;;9.67;6.60;;;;;;;;;;5041141;28;20419;-94
2023/04/10 01:35:15;;;;;;;11.37;7.77;;;;;;;;;;5046021;28;20472;-95
2023/04/10 01:37:42;;;;;;;10.33;7.00;;;;;;;;;;5045735;28;20415;-94
2023/04/10 01:40:09;;;;;;;10.87;7.87;;;;;;;;;;5031049;28;20450;-94
2023/04/10 01:42:41;;;;;;;13.47;8.30;;;;;;;;;;5029630;28;20395;-94
2023/04/10 01:45:07;;;;;;;10.43;7.50;;;;;;;;;;5029246;28;20453;-94
2023/04/10 01:47:34;;;;;;;10.57;7.80;;;;;;;;;;5029892;28;20483;-95
2023/04/10 01:50:00;;;;;;;12.00;8.87;;;;;;;;;;5031756;28;20421;-95
2023/04/10 01:52:26;;;;;;;10.80;6.90;;;;;;;;;;5028910;28;20411;-94
2023/04/10 01:54:53;;;;;;;12.60;8.60;;;;;;;;;;5028943;28;21048;-95
2023/04/10 01:57:19;;;;;;;11.13;7.80;;;;;;;;;;5028101;28;20467;-94
2023/04/10 01:59:45;;;;;;;12.47;7.70;;;;;;;;;;5029437;28;20427;-94
2023/04/10 02:02:11;;;;;;;11.23;7.50;;;;;;;;;;5027950;28;20490;-95
2023/04/10 02:04:37;;;;;;;13.43;7.93;;;;;;;;;;5052386;28;20519;-94
2023/04/10 02:07:04;;;;;;;11.83;8.00;;;;;;;;;;5021364;28;20426;-94
2023/04/10 02:09:36;;;;;;;10.23;6.90;;;;;;;;;;5044466;28;20793;-94
2023/04/10 02:12:05;;;;;;;10.20;7.23;;;;;;;;;;5043567;28;20402;-93
2023/04/10 02:14:32;;;;;;;11.90;8.53;;;;;;;;;;5043612;28;20440;-95
2023/04/10 02:16:58;;;;;;;11.90;7.00;;;;;;;;;;5044206;28;20945;-95
2023/04/10 02:19:24;;;;;;;15.70;7.57;;;;;;;;;;5049820;28;20430;-95
2023/04/10 02:21:51;;;;;;;14.00;7.87;;;;;;;;;;5043716;28;20921;-93
2023/04/10 02:24:17;;;;;;;10.83;7.20;;;;;;;;;;5028653;28;20422;-95
2023/04/10 02:26:47;;;;;;;9.13;6.60;;;;;;;;;;5027834;28;20474;-95
2023/04/10 02:29:13;;;;;;;12.23;7.20;;;;;;;;;;5026368;28;20423;-95
2023/04/10 02:31:39;;;;;;;13.90;8.17;;;;;;;;;;5007805;28;20427;-95
2023/04/10 02:34:06;;;;;;;10.70;6.23;;;;;;;;;;5022860;28;20433;-95
2023/04/10 02:36:32;;;;;;;9.87;6.97;;;;;;;;;;5026777;28;20910;-96
2023/04/10 02:38:58;;;;;;;12.23;8.50;;;;;;;;;;5028288;28;20458;-94
2023/04/10 02:41:24;;;;;;;12.27;7.77;;;;;;;;;;5019818;28;20483;-95
2023/04/10 02:43:51;;;;;;;12.87;8.63;;;;;;;;;;5021800;28;20994;-95
2023/04/10 02:46:17;;;;;;;9.90;7.03;;;;;;;;;;5027906;28;20511;-96
2023/04/10 02:48:53;;;;;;;11.73;7.50;;;;;;;;;;5016964;28;20450;-94
2023/04/10 02:51:19;;;;;;;13.17;8.63;;;;;;;;;;4984953;28;20413;-95
2023/04/10 02:53:46;;;;;;;12.17;8.03;;;;;;;;;;5055440;28;20422;-95
2023/04/10 02:56:12;;;;;;;10.80;6.60;;;;;;;;;;5013791;28;20438;-95
2023/04/10 02:58:38;;;;;;;10.30;6.97;;;;;;;;;;5023105;28;20414;-95
2023/04/10 03:01:08;;;;;;;13.63;8.70;;;;;;;;;;5049192;28;20414;-95
2023/04/10 03:03:34;;;;;;;8.70;6.70;;;;;;;;;;5048034;28;20426;-95
2023/04/10 03:06:00;;;;;;;12.43;7.97;;;;;;;;;;5062361;28;20442;-94
2023/04/10 03:08:26;;;;;;;12.43;7.13;;;;;;;;;;5031628;28;20426;-94
2023/04/10 03:10:52;;;;;;;10.93;6.53;;;;;;;;;;5053270;28;20477;-95
2023/04/10 03:13:19;;;;;;;11.87;7.60;;;;;;;;;;5047786;28;20418;-94
2023/04/10 03:15:45;;;;;;;9.53;7.10;;;;;;;;;;5046370;28;20785;-95
2023/04/10 03:18:12;;;;;;;13.23;7.50;;;;;;;;;;5026434;28;20408;-95
2023/04/10 03:20:38;;;;;;;11.97;7.20;;;;;;;;;;5045050;28;20453;-95
2023/04/10 03:23:05;;;;;;;11.50;7.73;;;;;;;;;;5045694;28;20434;-95
2023/04/10 03:25:33;;;;;;;13.00;8.70;;;;;;;;;;5031276;28;20469;-95
2023/04/10 03:27:59;;;;;;;10.63;6.80;;;;;;;;;;5015053;28;20514;-94
2023/04/10 03:30:25;;;;;;;12.80;7.53;;;;;;;;;;5046002;28;20486;-95
2023/04/10 03:32:51;;;;;;;13.53;8.10;;;;;;;;;;5027319;28;20438;-94
2023/04/10 03:35:18;;;;;;;14.43;7.97;;;;;;;;;;5027764;28;20435;-95
2023/04/10 03:37:44;;;;;;;10.33;7.07;;;;;;;;;;5027001;28;20434;-94
2023/04/10 03:40:10;;;;;;;12.23;7.07;;;;;;;;;;5029995;28;20423;-94
2023/04/10 03:42:36;;;;;;;9.63;7.53;;;;;;;;;;5030373;28;20441;-95
2023/04/10 03:45:03;;;;;;;10.63;7.17;;;;;;;;;;5033344;28;20472;-94
2023/04/10 03:47:30;;;;;;;11.23;7.27;;;;;;;;;;5051318;28;20462;-95
2023/04/10 03:49:58;;;;;;;9.07;6.50;;;;;;;;;;5032029;28;20428;-95
2023/04/10 03:52:24;;;;;;;12.63;8.03;;;;;;;;;;5028798;28;20457;-95
2023/04/10 03:54:50;;;;;;;9.57;6.80;;;;;;;;;;5050043;28;20452;-95
2023/04/10 03:57:18;;;;;;;8.50;6.77;;;;;;;;;;5045807;28;20509;-94
2023/04/10 03:59:44;;;;;;;13.87;7.87;;;;;;;;;;5048595;28;20449;-94
2023/04/10 04:02:10;;;;;;;13.03;8.50;;;;;;;;;;5025313;28;20430;-95
2023/04/10 04:04:36;;;;;;;13.17;7.50;;;;;;;;;;5029003;28;20420;-94
2023/04/10 04:07:02;;;;;;;11.57;7.87;;;;;;;;;;5030539;28;20449;-94
2023/04/10 04:09:28;;;;;;;8.63;6.30;;;;;;;;;;5035930;28;20428;-95
2023/04/10 04:11:55;;;;;;;10.07;7.00;;;;;;;;;;5019924;28;20459;-95
2023/04/10 04:14:21;;;;;;;10.30;6.97;;;;;;;;;;5020191;28;20470;-95
2023/04/10 04:16:47;;;;;;;11.20;8.00;;;;;;;;;;5021133;28;20939;-94
2023/04/10 04:19:14;;;;;;;9.80;6.63;;;;;;;;;;5016767;28;20483;-95
2023/04/10 04:21:40;;;;;;;10.47;7.00;;;;;;;;;;5026032;28;20451;-94
2023/04/10 04:24:06;;;;;;;10.27;6.93;;;;;;;;;;4989873;28;20440;-94
2023/04/10 04:26:33;;;;;;;9.20;6.20;;;;;;;;;;4999472;28;20480;-94
2023/04/10 04:28:59;;;;;;;12.00;7.17;;;;;;;;;;4969928;28;20420;-96
2023/04/10 04:31:31;;;;;;;10.67;6.30;;;;;;;;;;5005535;28;20464;-96
2023/04/10 04:33:57;;;;;;;9.40;7.20;;;;;;;;;;5004822;28;20448;-96
2023/04/10 04:36:23;;;;;;;12.70;7.50;;;;;;;;;;4988130;28;20429;-96
2023/04/10 04:38:49;;;;;;;10.77;7.73;;;;;;;;;;5000738;28;20433;-96
2023/04/10 04:41:15;;;;;;;11.40;8.23;;;;;;;;;;5001077;28;20524;-96
2023/04/10 04:43:41;;;;;;;10.20;6.83;;;;;;;;;;4997705;28;20521;-96
2023/04/10 04:46:07;;;;;;;10.00;7.77;;;;;;;;;;5004210;28;20463;-95
2023/04/10 04:48:34;;;;;;;9.37;6.23;;;;;;;;;;4997705;28;20450;-96
2023/04/10 04:51:00;;;;;;;11.40;7.60;;;;;;;;;;4998615;28;20840;-96
2023/04/10 04:53:29;;;;;;;10.37;7.43;;;;;;;;;;4999083;28;20433;-93
2023/04/10 04:55:55;;;;;;;7.50;6.70;;;;;;;;;;5001897;28;20425;-96
2023/04/10 04:58:22;;;;;;;9.70;6.30;;;;;;;;;;5035868;28;20439;-96
2023/04/10 05:00:49;;;;;;;12.30;7.10;;;;;;;;;;5045303;28;20445;-96
2023/04/10 05:03:15;;;;;;;7.03;5.80;;;;;;;;;;5016486;28;20423;-96
2023/04/10 05:05:41;;;;;;;8.93;6.33;;;;;;;;;;5019820;28;20462;-96
2023/04/10 05:08:07;;;;;;;8.37;6.03;;;;;;;;;;5024865;28;20417;-95
2023/04/10 05:10:33;;;;;;;11.70;7.47;;;;;;;;;;5033613;28;20441;-96
2023/04/10 05:12:59;;;;;;;8.97;7.40;;;;;;;;;;5058503;28;20423;-96
2023/04/10 05:15:25;;;;;;;9.30;7.10;;;;;;;;;;5027266;28;20525;-96
2023/04/10 05:17:51;;;;;;;10.03;6.53;;;;;;;;;;5030244;28;20419;-95
2023/04/10 05:20:20;;;;;;;10.73;6.50;;;;;;;;;;5048847;28;20441;-96
2023/04/10 05:22:46;;;;;;;8.80;6.80;;;;;;;;;;5031919;28;20446;-96
2023/04/10 05:25:13;;;;;;;8.63;6.60;;;;;;;;;;5052451;28;20454;-96
2023/04/10 05:27:39;;;;;;;12.77;6.80;;;;;;;;;;5069411;28;20402;-96
2023/04/10 05:30:08;;;;;;;11.80;7.27;;;;;;;;;;5071289;28;20433;-96
2023/04/10 05:32:34;;;;;;;11.10;6.87;;;;;;;;;;5069954;28;20426;-96
2023/04/10 05:35:01;;;;;;;7.83;6.10;;;;;;;;;;5072171;28;20477;-96
2023/04/10 05:37:27;;;;;;;11.20;6.47;;;;;;;;;;5075497;28;20426;-96
2023/04/10 05:40:01;;;;;;;10.53;6.40;;;;;;;;;;5077009;28;20433;-96
2023/04/10 05:42:29;;;;;;;10.63;6.20;;;;;;;;;;5077719;28;20489;-96
2023/04/10 05:44:56;;;;;;;10.10;6.33;;;;;;;;;;5076817;28;20517;-96
2023/04/10 05:47:22;;;;;;;7.87;6.23;;;;;;;;;;5077692;28;20440;-96
2023/04/10 05:49:57;;;;;;;12.33;6.60;;;;;;;;;;5077404;28;20437;-96
2023/04/10 05:52:23;;;;;;;9.30;7.60;;;;;;;;;;5053507;28;20944;-96
2023/04/10 05:54:50;;;;;;;7.67;5.23;;;;;;;;;;5051946;28;20444;-96
2023/04/10 05:57:16;;;;;;;9.07;7.20;;;;;;;;;;5052018;28;21015;-96
2023/04/10 05:59:44;;;;;;;11.53;7.80;;;;;;;;;;5053244;28;20442;-96
2023/04/10 06:02:30;;;;;;;9.67;7.10;;;;;;;;;;5054735;28;20419;-96
2023/04/10 06:04:57;;;;;;;11.17;6.40;;;;;;;;;;5039185;28;20523;-96
2023/04/10 06:07:26;;;;;;;10.73;6.30;;;;;;;;;;5054615;28;20445;-96
2023/04/10 06:09:52;;;;;;;8.60;6.40;;;;;;;;;;5052769;28;20438;-96
2023/04/10 06:12:19;;;;;;;9.60;6.10;;;;;;;;;;5054864;28;20423;-96
2023/04/10 06:14:56;;;;;;;10.63;6.40;;;;;;;;;;5014990;28;20492;-96
2023/04/10 06:17:27;;;;;;;10.47;6.83;;;;;;;;;;5005805;28;20472;-96
2023/04/10 06:20:07;;;;;;;9.50;7.03;;;;;;;;;;5020318;28;20496;-96
2023/04/10 06:22:34;;;;;;;9.70;6.63;;;;;;;;;;5000613;28;20445;-96
2023/04/10 06:25:04;;;;;;;10.00;7.10;;;;;;;;;;5000828;28;20497;-96
2023/04/10 06:27:30;;;;;;;10.20;6.70;;;;;;;;;;5002474;28;20409;-96
2023/04/10 07:27:04;;;;;;;5.80;4.83;;;;;;;;;;1108157;22;20863;-92
2023/04/10 07:29:30;;;;;;;6.73;4.70;;;;;;;;;;5011853;28;20482;-93
2023/04/10 07:31:56;;;;;;;5.90;4.50;;;;;;;;;;5006393;28;20424;-94
2023/04/10 07:34:22;;;;;;;7.33;5.20;;;;;;;;;;5011656;28;20463;-94
2023/04/10 07:36:48;;;;;;;6.10;4.80;;;;;;;;;;5003025;28;20440;-95
2023/04/10 07:39:14;;;;;;;5.53;4.70;;;;;;;;;;5005818;28;20425;-94
2023/04/10 07:41:41;;;;;;;6.03;4.50;;;;;;;;;;5007917;28;20464;-94
2023/04/10 07:44:07;;;;;;;5.70;4.40;;;;;;;;;;4999150;28;20431;-95
2023/04/10 07:46:33;;;;;;;4.17;3.77;;;;;;;;;;4982730;28;20470;-92
2023/04/10 07:48:59;;;;;;;5.60;4.83;;;;;;;;;;4984540;28;20459;-91
2023/04/10 07:51:26;;;;;;;6.13;4.30;;;;;;;;;;5014790;28;20585;-95
2023/04/10 07:53:52;;;;;;;5.43;3.83;;;;;;;;;;4984465;28;20446;-95
2023/04/10 07:56:18;;;;;;;8.70;4.47;;;;;;;;;;4986115;28;20424;-95
2023/04/10 07:58:45;;;;;;;7.10;4.37;;;;;;;;;;4979609;28;22380;-94
2023/04/10 08:01:11;;;;;;;6.13;4.03;;;;;;;;;;4981908;28;20447;-94
2023/04/10 08:03:38;;;;;;;5.57;3.73;;;;;;;;;;4983606;28;20464;-94
2023/04/10 08:06:04;;;;;;;5.07;3.97;;;;;;;;;;4987887;28;20456;-93
2023/04/10 08:08:30;;;;;;;4.97;3.67;;;;;;;;;;4999353;28;20432;-95
2023/04/10 08:10:56;;;;;;;4.80;4.03;;;;;;;;;;5007969;28;20500;-92
2023/04/10 08:13:22;;;;;;;6.23;4.27;;;;;;;;;;5006445;28;21252;-92
2023/04/10 08:15:48;;;;;;;4.90;3.80;;;;;;;;;;5001190;28;20455;-92
2023/04/10 08:18:14;;;;;;;5.10;3.57;;;;;;;;;;4999464;28;20487;-91
2023/04/10 08:20:40;;;;;;;4.83;3.57;;;;;;;;;;5001869;28;21069;-92
2023/04/10 08:23:06;;;;;;;5.57;3.57;;;;;;;;;;5001220;28;20847;-92
2023/04/10 08:25:32;;;;;;;4.57;3.80;;;;;;;;;;5001067;28;20530;-92
2023/04/10 08:27:59;;;;;;;3.77;3.10;;;;;;;;;;5008062;28;20431;-92
2023/04/10 08:30:25;;;;;;;6.13;3.73;;;;;;;;;;5031310;28;20495;-93
2023/04/10 08:32:51;;;;;;;4.80;3.97;;;;;;;;;;5020091;28;20486;-92
2023/04/10 08:35:17;;;;;;;5.33;3.13;;;;;;;;;;5022138;28;20435;-92
2023/04/10 08:37:43;;;;;;;9.67;4.27;;;;;;;;;;5030162;28;20436;-92
2023/04/10 08:40:09;;;;;;;5.13;4.63;;;;;;;;;;5017855;28;20448;-93
2023/04/10 08:42:35;;;;;;;5.50;4.00;;;;;;;;;;5024639;28;20475;-92
2023/04/10 08:45:01;;;;;;;5.07;4.30;;;;;;;;;;5021702;28;20463;-92
2023/04/10 08:47:28;;;;;;;4.90;3.83;;;;;;;;;;5023684;28;20486;-94
2023/04/10 08:49:54;;;;;;;4.20;3.20;;;;;;;;;;5019592;28;20451;-92
2023/04/10 08:52:26;;;;;;;5.50;3.50;;;;;;;;;;5020492;28;20466;-92
2023/04/10 08:54:56;;;;;;;4.70;3.10;;;;;;;;;;5032591;28;20431;-93
2023/04/10 08:57:22;;;;;;;4.77;3.43;;;;;;;;;;5019979;28;20415;-92
2023/04/10 08:59:48;;;;;;;4.37;3.30;;;;;;;;;;5016892;28;20439;-91
2023/04/10 09:02:14;;;;;;;4.33;3.23;;;;;;;;;;5024089;28;20438;-93
2023/04/10 09:04:43;;;;;;;7.20;3.80;;;;;;;;;;5020989;28;20444;-92
2023/04/10 09:07:09;;;;;;;4.30;3.60;;;;;;;;;;5018457;28;21053;-92
2023/04/10 09:09:35;;;;;;;5.13;3.97;;;;;;;;;;5033777;28;20441;-93
2023/04/10 09:12:02;;;;;;;4.10;3.40;;;;;;;;;;5037317;28;20422;-92
2023/04/10 09:14:29;;;;;;;4.20;3.40;;;;;;;;;;5022012;28;20427;-92
2023/04/10 09:17:15;;;;;;;4.00;3.30;;;;;;;;;;5045640;28;20910;-93
2023/04/10 09:19:41;;;;;;;3.57;3.23;;;;;;;;;;5050648;28;20422;-93
2023/04/10 09:22:07;;;;;;;3.93;2.93;;;;;;;;;;5027000;28;20493;-93
2023/04/10 09:24:39;;;;;;;3.73;3.30;;;;;;;;;;5023531;28;20419;-92
2023/04/10 09:27:06;;;;;;;4.93;3.33;;;;;;;;;;5024468;28;20430;-92
2023/04/10 09:29:42;;;;;;;5.87;3.50;;;;;;;;;;5027860;28;20462;-93
2023/04/10 09:32:09;;;;;;;5.47;3.40;;;;;;;;;;5031387;28;20525;-93
2023/04/10 09:34:36;;;;;;;3.30;2.90;;;;;;;;;;5012126;28;21016;-93
2023/04/10 09:37:02;;;;;;;4.30;3.00;;;;;;;;;;5021340;28;20475;-92
2023/04/10 09:39:37;;;;;;;3.63;2.70;;;;;;;;;;5020782;28;20436;-94
2023/04/10 09:42:03;;;;;;;3.70;2.77;;;;;;;;;;5030298;28;20453;-92
2023/04/10 09:44:32;;;;;;;5.00;3.13;;;;;;;;;;5020580;28;20478;-93
2023/04/10 09:47:18;;;;;;;4.73;2.83;;;;;;;;;;5040158;28;20471;-93
2023/04/10 09:49:47;;;;;;;3.73;3.33;;;;;;;;;;5034816;28;20423;-93
2023/04/10 09:52:17;;;;;;;3.97;3.20;;;;;;;;;;5016572;28;20423;-92
2023/04/10 09:54:43;;;;;;;4.23;3.17;;;;;;;;;;5018498;28;20801;-93
2023/04/10 09:57:09;;;;;;;3.47;2.73;;;;;;;;;;5018117;28;20426;-93
2023/04/10 09:59:36;;;;;;;3.97;3.20;;;;;;;;;;5018426;28;20423;-93
2023/04/10 10:02:02;;;;;;;3.90;3.50;;;;;;;;;;5020997;28;21114;-93
2023/04/10 10:04:28;;;;;;;4.23;2.57;;;;;;;;;;5023477;28;20403;-92
2023/04/10 10:06:54;;;;;;;4.00;2.87;;;;;;;;;;5021467;28;20467;-93
2023/04/10 10:09:20;;;;;;;4.20;2.70;;;;;;;;;;4987954;28;20920;-93
2023/04/10 10:11:46;;;;;;;2.83;2.43;;;;;;;;;;4972657;28;20440;-92
2023/04/10 10:14:18;;;;;;;3.00;2.30;;;;;;;;;;4997919;28;21107;-92
2023/04/10 10:16:46;;;;;;;4.30;2.70;;;;;;;;;;4981556;28;20876;-93
2023/04/10 10:19:32;;;;;;;3.17;2.23;;;;;;;;;;4988490;28;20453;-93
2023/04/10 10:22:00;;;;;;;2.77;2.33;;;;;;;;;;4995753;28;20460;-93
2023/04/10 10:24:26;;;;;;;3.50;2.70;;;;;;;;;;4977012;28;21724;-93
2023/04/10 10:26:52;;;;;;;2.97;2.57;;;;;;;;;;4980557;28;20448;-93
2023/04/10 10:29:18;;;;;;;2.73;2.03;;;;;;;;;;4976608;28;20461;-90
2023/04/10 10:31:44;;;;;;;2.67;2.10;;;;;;;;;;4984090;28;20445;-92
2023/04/10 10:34:10;;;;;;;3.70;2.50;;;;;;;;;;4973146;28;20648;-92
2023/04/10 10:36:37;;;;;;;3.80;2.77;;;;;;;;;;4974029;28;20447;-93
2023/04/10 10:39:18;;;;;;;2.67;1.90;;;;;;;;;;4976524;28;20416;-93
2023/04/10 10:41:46;;;;;;;2.57;2.03;;;;;;;;;;4994835;28;20470;-94
2023/04/10 10:44:32;;;;;;;2.90;1.60;;;;;;;;;;4999469;28;20538;-94
2023/04/10 10:47:05;;;;;;;2.70;1.80;;;;;;;;;;4970626;28;21266;-93
2023/04/10 10:49:51;;;;;;;2.80;1.77;;;;;;;;;;5000018;28;20494;-92
2023/04/10 10:52:35;;;;;;;2.70;2.13;;;;;;;;;;4988695;28;20443;-92
2023/04/10 10:55:21;;;;;;;2.70;2.00;;;;;;;;;;5001350;28;20633;-92
2023/04/10 10:57:48;;;;;;;2.47;1.73;;;;;;;;;;4999168;28;20423;-93
2023/04/10 11:00:17;;;;;;;2.70;2.10;;;;;;;;;;4998455;28;20436;-92
2023/04/10 11:02:45;;;;;;;2.87;2.00;;;;;;;;;;5002836;28;20416;-92
2023/04/10 11:05:31;;;;;;;2.27;2.00;;;;;;;;;;4981084;28;20467;-93
2023/04/10 11:08:00;;;;;;;3.00;1.80;;;;;;;;;;5033940;28;20474;-92
2023/04/10 11:10:47;;;;;;;2.90;2.40;;;;;;;;;;5031271;28;20481;-94
2023/04/10 11:13:16;;;;;;;2.10;1.80;;;;;;;;;;5041025;28;20439;-94
2023/04/10 11:15:44;;;;;;;2.93;1.97;;;;;;;;;;5023662;28;20419;-94
2023/04/10 11:18:11;;;;;;;2.53;1.83;;;;;;;;;;5021921;28;20450;-93
2023/04/10 11:20:57;;;;;;;2.67;2.00;;;;;;;;;;5022255;28;20508;-94
2023/04/10 11:23:27;;;;;;;2.97;1.80;;;;;;;;;;5036079;28;21028;-93
2023/04/10 11:25:54;;;;;;;2.03;1.47;;;;;;;;;;5014791;28;20464;-93
2023/04/10 11:28:32;;;;;;;2.60;1.70;;;;;;;;;;5022417;28;20555;-94
2023/04/10 11:31:17;;;;;;;3.10;1.80;;;;;;;;;;5039333;28;20419;-93
2023/04/10 11:33:43;;;;;;;2.73;2.00;;;;;;;;;;5022831;28;20425;-93
2023/04/10 11:36:09;;;;;;;2.70;2.33;;;;;;;;;;5022652;28;20534;-93
2023/04/10 11:38:36;;;;;;;2.50;1.80;;;;;;;;;;5015529;28;20424;-93
2023/04/10 11:41:03;;;;;;;2.57;2.13;;;;;;;;;;5014265;28;20424;-93
2023/04/10 11:43:29;;;;;;;2.47;1.60;;;;;;;;;;5005428;28;20460;-93
2023/04/10 11:46:13;;;;;;;3.40;1.70;;;;;;;;;;5002151;28;20456;-92
2023/04/10 11:48:39;;;;;;;3.67;1.87;;;;;;;;;;4986040;28;20433;-92
2023/04/10 11:51:07;;;;;;;2.40;1.80;;;;;;;;;;5003451;28;20409;-93
2023/04/10 11:53:33;;;;;;;2.70;2.00;;;;;;;;;;5017265;28;20451;-93
2023/04/10 11:55:59;;;;;;;2.57;2.00;;;;;;;;;;4999075;28;20448;-93
2023/04/10 11:58:25;;;;;;;2.67;1.67;;;;;;;;;;5006645;28;21251;-92
2023/04/10 12:01:03;;;;;;;3.27;2.27;;;;;;;;;;5000879;28;20860;-92
2023/04/10 12:03:35;;;;;;;2.17;1.70;;;;;;;;;;4997856;28;20482;-92
2023/04/10 12:06:01;;;;;;;2.20;1.40;;;;;;;;;;4999270;28;20538;-92
2023/04/10 12:08:34;;;;;;;2.70;1.70;;;;;;;;;;5009088;28;20420;-93
2023/04/10 12:11:00;;;;;;;2.27;1.43;;;;;;;;;;4983908;28;20516;-93
2023/04/10 12:13:27;;;;;;;2.20;1.20;;;;;;;;;;4999752;28;20440;-93
2023/04/10 12:15:53;;;;;;;2.20;1.43;;;;;;;;;;5017355;28;20435;-93
2023/04/10 12:18:20;;;;;;;2.07;1.30;;;;;;;;;;5018436;28;20437;-93
2023/04/10 12:20:46;;;;;;;1.90;1.30;;;;;;;;;;5022343;28;20442;-92
2023/04/10 12:23:12;;;;;;;1.80;1.07;;;;;;;;;;5017216;28;20535;-91
2023/04/10 12:25:38;;;;;;;2.57;1.40;;;;;;;;;;5021420;28;20458;-93
2023/04/10 12:28:05;;;;;;;2.40;1.50;;;;;;;;;;5027367;28;20805;-92
2023/04/10 12:30:31;;;;;;;2.57;0.80;;;;;;;;;;5020841;28;20436;-93
2023/04/10 12:32:59;;;;;;;2.20;1.20;;;;;;;;;;5025953;28;20423;-92
2023/04/10 12:35:42;;;;;;;1.73;0.80;;;;;;;;;;5030877;28;20447;-93
2023/04/10 12:38:09;;;;;;;2.10;1.00;;;;;;;;;;5022835;28;20427;-92
2023/04/10 12:40:37;;;;;;;2.10;1.20;;;;;;;;;;5021481;28;20463;-94
2023/04/10 12:43:03;;;;;;;1.83;1.00;;;;;;;;;;5015078;28;20541;-94
2023/04/10 12:45:42;;;;;;;1.80;0.90;;;;;;;;;;5023401;28;20451;-93
2023/04/10 12:48:08;;;;;;;2.00;1.30;;;;;;;;;;5032734;28;20425;-93
2023/04/10 12:50:34;;;;;;;1.60;0.80;;;;;;;;;;5029711;28;20499;-93
2023/04/10 12:53:06;;;;;;;2.00;1.00;;;;;;;;;;5030238;28;20438;-93
2023/04/10 12:55:32;;;;;;;1.80;0.90;;;;;;;;;;5017185;28;20788;-93
2023/04/10 12:57:58;;;;;;;2.20;1.30;;;;;;;;;;5028812;28;20439;-93
2023/04/10 13:00:25;;;;;;;2.50;1.00;;;;;;;;;;5020809;28;20407;-92
2023/04/10 13:02:51;;;;;;;1.97;1.23;;;;;;;;;;5020591;28;20432;-92
2023/04/10 13:05:17;;;;;;;2.20;1.20;;;;;;;;;;5000521;28;20557;-93
2023/04/10 13:07:43;;;;;;;3.10;1.10;;;;;;;;;;4999208;28;20444;-92
2023/04/10 13:10:09;;;;;;;1.70;1.00;;;;;;;;;;5002757;28;20474;-94
2023/04/10 13:12:36;;;;;;;2.13;1.47;;;;;;;;;;5002071;28;20466;-92
2023/04/10 13:15:02;;;;;;;1.87;1.30;;;;;;;;;;4996407;28;20516;-93
2023/04/10 13:17:28;;;;;;;2.23;1.30;;;;;;;;;;4996200;28;20474;-93
2023/04/10 13:19:55;;;;;;;2.17;1.27;;;;;;;;;;4999522;28;20476;-93
2023/04/10 13:22:24;;;;;;;2.60;1.50;;;;;;;;;;4997111;28;20432;-93
2023/04/10 13:24:50;;;;;;;1.80;1.07;;;;;;;;;;5002472;28;20591;-94
2023/04/10 13:27:16;;;;;;;5.13;1.90;;;;;;;;;;4996103;28;20414;-93
2023/04/10 13:29:42;;;;;;;2.40;1.50;;;;;;;;;;4998252;28;20497;-93
2023/04/10 13:32:21;;;;;;;4.00;2.00;;;;;;;;;;4996076;28;20522;-93
2023/04/10 13:34:47;;;;;;;2.27;1.33;;;;;;;;;;5002202;28;20424;-93
2023/04/10 13:37:13;;;;;;;2.40;1.60;;;;;;;;;;5033534;28;20465;-94
2023/04/10 13:39:39;;;;;;;2.13;1.30;;;;;;;;;;5024475;28;20451;-93
2023/04/10 13:42:05;;;;;;;2.40;1.30;;;;;;;;;;5019791;28;20435;-93
2023/04/10 14:00:43;;;;;;;3.40;1.50;;;;;;;;;;4989520;26;20505;-83
2023/04/10 14:03:11;;;;;;;2.90;1.50;;;;;;;;;;4958192;28;21039;-85
2023/04/10 14:05:37;;;;;;;2.30;1.40;;;;;;;;;;4963715;28;20465;-83
2023/04/10 14:08:03;;;;;;;2.23;1.20;;;;;;;;;;4975016;28;20479;-84
2023/04/10 14:10:29;;;;;;;2.30;1.30;;;;;;;;;;4965695;28;20448;-83
2023/04/10 14:12:55;;;;;;;2.53;1.53;;;;;;;;;;4961599;28;20418;-83
2023/04/10 14:15:21;;;;;;;2.30;1.70;;;;;;;;;;4981537;28;20993;-84
2023/04/10 14:17:48;;;;;;;2.47;1.50;;;;;;;;;;4964385;28;20944;-84
2023/04/10 14:20:14;;;;;;;2.37;1.60;;;;;;;;;;4968735;28;20443;-92
2023/04/10 14:22:40;;;;;;;2.40;1.70;;;;;;;;;;4965796;28;20409;-94
2023/04/10 14:25:09;;;;;;;2.30;1.50;;;;;;;;;;4972749;28;20437;-95
2023/04/10 14:27:45;;;;;;;2.10;1.20;;;;;;;;;;4969351;28;20425;-91
2023/04/10 14:30:31;;;;;;;3.07;1.80;;;;;;;;;;4983607;28;20453;-96
2023/04/10 14:36:20;;;;;;;2.03;1.60;;;;;;;;;;4950941;28;20430;-96
2023/04/10 15:51:29;;;;;;;2.83;2.00;;;;;;;;;;4997369;26;20480;-93
2023/04/10 15:53:55;;;;;;;2.30;1.60;;;;;;;;;;4972989;28;20524;-91
2023/04/10 15:56:21;;;;;;;2.00;1.73;;;;;;;;;;4970837;28;20485;-91
2023/04/10 15:58:47;;;;;;;2.30;1.60;;;;;;;;;;4963731;28;20464;-92
2023/04/10 16:01:12;;;;;;;2.00;1.50;;;;;;;;;;4971674;28;20432;-92
2023/04/10 16:03:39;;;;;;;2.30;1.70;;;;;;;;;;4932000;29;20459;-92
2023/04/10 16:06:05;;;;;;;2.10;1.40;;;;;;;;;;4923188;29;20546;-92
2023/04/10 16:08:31;;;;;;;2.73;1.60;;;;;;;;;;4926670;29;20495;-92
2023/04/10 16:10:57;;;;;;;2.13;1.57;;;;;;;;;;4923746;29;20450;-92
2023/04/10 16:13:23;;;;;;;2.80;1.73;;;;;;;;;;4922220;29;20446;-92
2023/04/10 16:15:49;;;;;;;2.40;1.70;;;;;;;;;;4917563;29;20478;-93
2023/04/10 16:18:16;;;;;;;5.10;1.80;;;;;;;;;;4942578;29;20440;-93
2023/04/10 16:20:42;;;;;;;1.97;1.50;;;;;;;;;;4925464;29;20440;-92
2023/04/10 16:23:08;;;;;;;3.20;2.00;;;;;;;;;;4927761;29;20467;-92
2023/04/10 16:25:34;;;;;;;2.53;1.93;;;;;;;;;;4922493;29;20547;-92
2023/04/10 16:28:06;;;;;;;3.00;2.70;;;;;;;;;;4936566;29;20423;-93
2023/04/10 16:30:32;;;;;;;2.93;2.20;;;;;;;;;;4924058;29;20435;-91
2023/04/10 16:32:58;;;;;;;5.23;4.63;;;;;;;;;;4922275;29;20439;-91
2023/04/10 16:35:24;;;;;;;6.60;5.90;;;;;;;;;;4961301;28;20447;-91
2023/04/10 16:37:50;;;;;;;17.10;15.37;;;;;;;;;;4965766;28;20428;-92
2023/04/10 16:40:17;;;;;;;4.43;3.63;;;;;;;;;;4973017;28;20441;-92
2023/04/10 16:42:43;;;;;;;4.40;4.00;;;;;;;;;;4965833;28;20767;-92
2023/04/10 16:45:09;;;;;;;3.50;1.93;;;;;;;;;;4961157;28;20433;-92
2023/04/10 16:47:35;;;;;;;5.33;1.93;;;;;;;;;;4992693;28;20439;-92
2023/04/10 16:50:01;;;;;;;2.37;1.90;;;;;;;;;;4965620;28;20428;-93
2023/04/10 16:52:27;;;;;;;2.00;1.60;;;;;;;;;;4972561;28;20571;-92
2023/04/10 16:54:53;;;;;;;2.00;1.60;;;;;;;;;;4969699;28;20472;-93
2023/04/10 16:57:20;;;;;;;2.20;1.77;;;;;;;;;;4961369;28;20873;-93
2023/04/10 16:59:46;;;;;;;2.30;1.70;;;;;;;;;;4969369;28;20443;-92
2023/04/10 17:02:12;;;;;;;2.30;1.47;;;;;;;;;;4964873;28;20851;-93
2023/04/10 17:04:38;;;;;;;11.40;8.83;;;;;;;;;;4967438;28;21004;-92
2023/04/10 17:07:04;;;;;;;3.43;2.57;;;;;;;;;;4961404;28;20458;-92
2023/04/10 17:09:31;;;;;;;2.67;1.63;;;;;;;;;;4970332;28;20514;-92
2023/04/10 17:12:00;;;;;;;3.37;2.87;;;;;;;;;;4968446;28;20580;-92